createdAt,value
2024-05-09T00:03:12.234Z,1018.132
2024-05-09T00:23:08.959Z,1018.128
2024-05-09T00:43:08.066Z,1018.078
2024-05-09T01:03:14.128Z,1017.991
2024-05-09T01:23:08.310Z,1017.954
2024-05-09T01:43:08.415Z,1017.99
2024-05-09T02:03:09.418Z,1017.981
2024-05-09T02:23:08.316Z,1018.026
2024-05-09T02:43:09.485Z,1018.049
2024-05-09T03:03:14.075Z,1018.05
2024-05-09T03:23:09.912Z,1018.015
2024-05-09T03:43:07.333Z,1018.1
2024-05-09T04:03:13.593Z,1018.091
2024-05-09T04:23:10.021Z,1018.122
2024-05-09T04:43:08.572Z,1018.224
2024-05-09T05:03:14.467Z,1018.111
2024-05-09T05:23:07.978Z,1018.194
2024-05-09T05:43:07.942Z,1018.242
2024-05-09T06:03:11.206Z,1018.344
2024-05-09T06:23:08.212Z,1018.354
2024-05-09T06:43:07.287Z,1018.346
2024-05-09T07:03:09.172Z,1018.301
2024-05-09T07:23:07.504Z,1018.512
2024-05-09T07:43:08.165Z,1018.371
2024-05-09T08:03:08.330Z,1018.318
2024-05-09T08:23:07.346Z,1018.274
2024-05-09T08:43:08.102Z,1018.158
2024-05-09T09:03:08.410Z,1018.205
2024-05-09T09:23:07.596Z,1018.049
2024-05-09T09:43:08.180Z,1018.03
2024-05-09T10:03:08.571Z,1017.909
2024-05-09T10:23:07.759Z,1017.755
2024-05-09T10:43:08.029Z,1017.535
2024-05-09T11:03:09.181Z,1017.407
2024-05-09T11:23:07.268Z,1017.193
2024-05-09T11:43:07.555Z,1017.048
2024-05-09T12:03:08.822Z,1016.872
2024-05-09T12:23:10.510Z,1016.721
2024-05-09T12:43:11.361Z,1016.524
2024-05-09T13:03:09.377Z,1016.264
2024-05-09T13:23:09.301Z,1016.078
2024-05-09T13:43:07.788Z,1015.92
2024-05-09T14:03:09.859Z,1015.733
2024-05-09T14:23:07.979Z,1015.625
2024-05-09T14:43:08.681Z,1015.508
2024-05-09T15:03:08.962Z,1015.295
2024-05-09T15:23:08.577Z,1015.15
2024-05-09T15:43:10.974Z,1014.987
2024-05-09T16:03:09.952Z,1014.871
2024-05-09T16:23:09.523Z,1014.716
2024-05-09T16:43:10.067Z,1014.533
2024-05-09T17:03:10.565Z,1014.488
2024-05-09T17:23:07.638Z,1014.504
2024-05-09T17:43:11.502Z,1014.507
2024-05-09T18:03:09.879Z,1014.483
2024-05-09T18:23:07.959Z,1014.446
2024-05-09T18:43:09.963Z,1014.482
2024-05-09T19:03:14.815Z,1014.623
2024-05-09T19:23:08.215Z,1014.799
2024-05-09T19:43:08.002Z,1014.897
2024-05-09T20:03:10.553Z,1014.945
2024-05-09T20:23:07.719Z,1015.107
2024-05-09T20:43:09.994Z,1015.141
2024-05-09T21:03:09.438Z,1015.109
2024-05-09T21:23:07.585Z,1015.156
2024-05-09T21:43:08.912Z,1015.139
2024-05-09T22:03:11.816Z,1015.075
2024-05-09T22:23:09.495Z,1015.145
2024-05-09T22:43:07.581Z,1015.198
2024-05-09T23:03:08.464Z,1015.181
2024-05-09T23:23:07.933Z,1015.074
2024-05-09T23:43:08.999Z,1014.929
